Terminal Aerodrome Forecast
Issued by NWS

Home | Current Version | Previous Version | Text Only | Print | Product List | Glossary On
Versions: 1 2 3 4 5 6 7 8 9 10 11 12 13 14 15 16 17
000
FTUS41 KALY 242100 AAA
TAFPSF
TAF AMD
KPSF 242111Z 2421/2518 32017G26KT P6SM SKC
     FM250000 30012G20KT P6SM SKC
     FM250400 30003KT P6SM SKC
     FM251600 25006KT P6SM SCT250=

USA.gov is the U.S. government's official web portal to all federal, state and local government web resources and services.